createdAt,value
2023-03-29T00:00:20.508Z,661.00
2023-03-29T00:04:20.729Z,659.00
2023-03-29T00:08:20.862Z,655.00
2023-03-29T00:12:21.330Z,651.00
2023-03-29T00:16:21.384Z,644.00
2023-03-29T00:20:21.061Z,650.00
2023-03-29T00:24:21.266Z,649.00
2023-03-29T00:28:21.359Z,645.00
2023-03-29T00:32:21.399Z,643.00
2023-03-29T00:36:21.383Z,641.00
2023-03-29T00:40:21.292Z,640.00
2023-03-29T00:44:21.866Z,638.00
2023-03-29T00:48:21.865Z,633.00
2023-03-29T00:52:21.432Z,629.00
2023-03-29T00:56:21.864Z,631.00
2023-03-29T01:00:21.459Z,625.00
2023-03-29T01:04:21.861Z,619.00
2023-03-29T01:08:21.346Z,616.00
2023-03-29T01:12:21.349Z,614.00
2023-03-29T01:16:21.374Z,611.00
2023-03-29T01:20:21.372Z,602.00
2023-03-29T01:24:21.263Z,602.00
2023-03-29T01:28:21.365Z,606.00
2023-03-29T01:32:21.423Z,608.00
2023-03-29T01:36:21.236Z,610.00
2023-03-29T01:40:21.406Z,607.00
2023-03-29T01:44:21.392Z,605.00
2023-03-29T01:48:21.393Z,602.00
2023-03-29T01:52:21.167Z,599.00
2023-03-29T01:56:21.207Z,596.00
2023-03-29T02:00:21.452Z,590.00
2023-03-29T02:04:21.415Z,594.00
2023-03-29T02:08:21.132Z,592.00
2023-03-29T02:12:21.106Z,590.00
2023-03-29T02:16:21.484Z,588.00
2023-03-29T02:20:21.414Z,593.00
2023-03-29T02:24:21.137Z,586.00
2023-03-29T02:28:21.432Z,587.00
2023-03-29T02:32:21.149Z,580.00
2023-03-29T02:36:21.414Z,577.00
2023-03-29T02:40:21.394Z,578.00
2023-03-29T02:44:21.436Z,571.00
2023-03-29T02:48:21.096Z,576.00
2023-03-29T02:52:21.078Z,574.00
2023-03-29T02:56:21.937Z,575.00
2023-03-29T03:00:21.438Z,572.00
2023-03-29T03:04:21.491Z,572.00
2023-03-29T03:08:21.427Z,570.00
2023-03-29T03:12:21.250Z,569.00
2023-03-29T03:16:21.332Z,568.00
2023-03-29T03:20:21.495Z,564.00
2023-03-29T03:24:21.454Z,561.00
2023-03-29T03:28:21.251Z,560.00
2023-03-29T03:32:21.290Z,557.00
2023-03-29T03:36:21.417Z,560.00
2023-03-29T03:40:21.432Z,560.00
2023-03-29T03:44:21.426Z,560.00
2023-03-29T03:48:21.495Z,559.00
2023-03-29T03:52:21.518Z,560.00
2023-03-29T03:56:21.966Z,559.00
2023-03-29T04:00:21.981Z,557.00
2023-03-29T04:04:21.966Z,556.00
2023-03-29T04:08:21.593Z,558.00
2023-03-29T04:12:21.978Z,557.00
2023-03-29T04:16:21.986Z,554.00
2023-03-29T04:20:21.942Z,554.00
2023-03-29T04:24:21.597Z,548.00
2023-03-29T04:28:21.642Z,551.00
2023-03-29T04:32:22.013Z,552.00
2023-03-29T04:36:21.997Z,551.00
2023-03-29T04:40:21.948Z,552.00
2023-03-29T04:44:21.988Z,555.00
2023-03-29T04:48:21.774Z,553.00
2023-03-29T04:52:24.401Z,553.00
2023-03-29T04:56:21.976Z,552.00
2023-03-29T05:00:21.996Z,551.00
2023-03-29T05:04:21.686Z,546.00
2023-03-29T05:08:21.977Z,539.00
2023-03-29T05:12:29.553Z,539.00
2023-03-29T05:16:21.715Z,534.00
2023-03-29T05:20:22.047Z,535.00
2023-03-29T05:24:21.438Z,535.00
2023-03-29T05:28:21.510Z,533.00
2023-03-29T05:32:21.530Z,533.00
2023-03-29T05:36:21.450Z,531.00
2023-03-29T05:40:22.065Z,535.00
2023-03-29T05:44:21.637Z,532.00
2023-03-29T05:48:22.034Z,812.00
2023-03-29T05:52:22.074Z,658.00
2023-03-29T05:56:21.840Z,792.00
2023-03-29T06:00:22.038Z,889.00
2023-03-29T06:04:22.038Z,1007.00
2023-03-29T06:08:22.029Z,1087.00
2023-03-29T06:12:22.053Z,1325.00
2023-03-29T06:16:22.042Z,1595.00
2023-03-29T06:20:21.641Z,1650.00
2023-03-29T06:24:22.539Z,1862.00
2023-03-29T06:28:22.055Z,1780.00
2023-03-29T06:32:21.570Z,1831.00
2023-03-29T06:36:21.540Z,2091.00
2023-03-29T06:40:21.606Z,2287.00
2023-03-29T06:44:21.540Z,2365.00
2023-03-29T06:48:21.593Z,2535.00
2023-03-29T06:52:21.553Z,2381.00
2023-03-29T06:56:21.590Z,2293.00
2023-03-29T07:00:21.302Z,932.00
2023-03-29T07:04:21.437Z,712.00
2023-03-29T07:08:22.067Z,585.00
2023-03-29T07:12:22.092Z,575.00
2023-03-29T07:16:21.998Z,577.00
2023-03-29T07:20:22.560Z,608.00
2023-03-29T07:24:21.965Z,629.00
2023-03-29T07:28:29.117Z,640.00
2023-03-29T07:32:22.048Z,660.00
2023-03-29T07:36:21.960Z,641.00
2023-03-29T07:40:22.068Z,845.00
2023-03-29T07:44:21.897Z,957.00
2023-03-29T07:48:22.086Z,1028.00
2023-03-29T07:52:22.088Z,1159.00
2023-03-29T07:56:21.746Z,1395.00
2023-03-29T08:00:22.114Z,1573.00
2023-03-29T08:04:22.187Z,1662.00
2023-03-29T08:08:22.093Z,1815.00
2023-03-29T08:12:24.494Z,1928.00
2023-03-29T08:16:22.127Z,2080.00
2023-03-29T08:20:22.130Z,2216.00
2023-03-29T08:24:22.117Z,2215.00
2023-03-29T08:28:22.093Z,2411.00
2023-03-29T08:32:22.061Z,2534.00
2023-03-29T08:36:22.123Z,2689.00
2023-03-29T08:40:22.110Z,2848.00
2023-03-29T08:44:22.143Z,2046.00
2023-03-29T08:48:22.126Z,1925.00
2023-03-29T08:52:21.719Z,1457.00
2023-03-29T08:56:22.133Z,1481.00
2023-03-29T09:00:22.118Z,1270.00
2023-03-29T09:04:22.107Z,1261.00
2023-03-29T09:08:21.617Z,1170.00
2023-03-29T09:12:21.656Z,1101.00
2023-03-29T09:16:21.925Z,1079.00
2023-03-29T09:20:22.121Z,1034.00
2023-03-29T09:24:22.136Z,931.00
2023-03-29T09:28:22.034Z,963.00
2023-03-29T09:32:22.123Z,926.00
2023-03-29T09:36:22.125Z,896.00
2023-03-29T09:40:22.163Z,857.00
2023-03-29T09:44:30.758Z,833.00
2023-03-29T09:48:22.821Z,830.00
2023-03-29T09:52:22.156Z,866.00
2023-03-29T09:56:21.967Z,958.00
2023-03-29T10:00:21.990Z,914.00
2023-03-29T10:04:21.907Z,918.00
2023-03-29T10:08:21.835Z,927.00
2023-03-29T10:12:21.836Z,949.00
2023-03-29T10:16:21.808Z,968.00
2023-03-29T10:20:21.715Z,981.00
2023-03-29T10:24:21.683Z,995.00
2023-03-29T10:28:21.640Z,1017.00
2023-03-29T10:32:21.602Z,1031.00
2023-03-29T10:36:21.626Z,1049.00
2023-03-29T10:40:21.657Z,1061.00
2023-03-29T10:44:21.589Z,1073.00
2023-03-29T10:48:22.671Z,1098.00
2023-03-29T10:52:21.674Z,1133.00
2023-03-29T10:56:21.686Z,1137.00
2023-03-29T11:00:21.654Z,1135.00
2023-03-29T11:04:21.427Z,1141.00
2023-03-29T11:08:21.673Z,1140.00
2023-03-29T11:12:21.294Z,1147.00
2023-03-29T11:16:21.332Z,1133.00
2023-03-29T11:20:21.696Z,1129.00
2023-03-29T11:24:21.207Z,1153.00
2023-03-29T11:28:21.181Z,1143.00
2023-03-29T11:32:21.208Z,1196.00
2023-03-29T11:36:21.110Z,1199.00
2023-03-29T11:40:21.097Z,1187.00
2023-03-29T11:44:21.032Z,1240.00
2023-03-29T11:48:20.979Z,1229.00
2023-03-29T11:52:21.022Z,1189.00
2023-03-29T11:56:21.017Z,1167.00
2023-03-29T12:00:20.991Z,1158.00
2023-03-29T12:04:20.955Z,1130.00
2023-03-29T12:08:21.169Z,1093.00
2023-03-29T12:12:21.187Z,1099.00
2023-03-29T12:16:20.904Z,1115.00
2023-03-29T12:20:20.771Z,1143.00
2023-03-29T12:24:21.215Z,1168.00
2023-03-29T12:28:21.208Z,1181.00
2023-03-29T12:32:20.753Z,1274.00
2023-03-29T12:36:20.687Z,1227.00
2023-03-29T12:40:20.645Z,1197.00
2023-03-29T12:44:20.650Z,1152.00
2023-03-29T12:48:20.575Z,1130.00
2023-03-29T12:52:20.517Z,1170.00
2023-03-29T12:56:20.488Z,1141.00
2023-03-29T13:00:20.719Z,1099.00
2023-03-29T13:04:27.775Z,1101.00
2023-03-29T13:08:20.370Z,1084.00
2023-03-29T13:12:20.383Z,1082.00
2023-03-29T13:16:20.446Z,1065.00
2023-03-29T13:20:20.303Z,1030.00
2023-03-29T13:24:20.266Z,1049.00
2023-03-29T13:28:20.237Z,1067.00
2023-03-29T13:32:20.184Z,1052.00
2023-03-29T13:36:20.186Z,1006.00
2023-03-29T13:40:20.098Z,1008.00
2023-03-29T13:44:20.282Z,988.00
2023-03-29T13:48:20.112Z,977.00
2023-03-29T13:52:20.054Z,980.00
2023-03-29T13:56:20.014Z,972.00
2023-03-29T14:00:20.002Z,955.00
2023-03-29T14:04:19.989Z,948.00
2023-03-29T14:08:19.979Z,947.00
2023-03-29T14:12:19.910Z,927.00
2023-03-29T14:16:19.924Z,917.00
2023-03-29T14:20:19.920Z,907.00
2023-03-29T14:24:19.912Z,911.00
2023-03-29T14:28:20.296Z,903.00
2023-03-29T14:32:19.939Z,900.00
2023-03-29T14:36:20.046Z,892.00
2023-03-29T14:40:20.317Z,884.00
2023-03-29T14:44:19.910Z,877.00
2023-03-29T14:48:20.344Z,872.00
2023-03-29T14:52:19.923Z,864.00
2023-03-29T14:56:20.291Z,859.00
2023-03-29T15:00:20.007Z,852.00
2023-03-29T15:04:20.360Z,873.00
2023-03-29T15:08:20.315Z,869.00
2023-03-29T15:12:20.117Z,845.00
2023-03-29T15:16:20.190Z,830.00
2023-03-29T15:20:20.370Z,814.00
2023-03-29T15:24:20.184Z,808.00
2023-03-29T15:28:20.337Z,805.00
2023-03-29T15:32:20.287Z,796.00
2023-03-29T15:36:20.417Z,792.00
2023-03-29T15:40:20.823Z,789.00
2023-03-29T15:44:20.494Z,781.00
2023-03-29T15:48:20.833Z,781.00
2023-03-29T15:52:20.614Z,789.00
2023-03-29T15:56:20.729Z,784.00
2023-03-29T16:00:20.849Z,777.00
2023-03-29T16:04:20.836Z,774.00
2023-03-29T16:08:21.344Z,770.00
2023-03-29T16:12:20.982Z,763.00
2023-03-29T16:16:21.099Z,750.00
2023-03-29T16:20:21.121Z,742.00
2023-03-29T16:24:21.225Z,730.00
2023-03-29T16:28:21.306Z,728.00
2023-03-29T16:32:21.413Z,722.00
2023-03-29T16:36:21.537Z,728.00
2023-03-29T16:40:21.648Z,724.00
2023-03-29T16:44:23.566Z,818.00
2023-03-29T16:48:21.875Z,769.00
2023-03-29T16:52:21.868Z,803.00
2023-03-29T16:56:21.872Z,872.00
2023-03-29T17:00:22.341Z,909.00
2023-03-29T17:04:22.056Z,974.00
2023-03-29T17:08:22.113Z,1037.00
2023-03-29T17:12:21.993Z,1113.00
2023-03-29T17:16:22.446Z,1127.00
2023-03-29T17:20:21.903Z,1192.00
2023-03-29T17:24:22.351Z,1220.00
2023-03-29T17:28:21.827Z,1271.00
2023-03-29T17:32:21.835Z,1313.00
2023-03-29T17:36:21.883Z,1357.00
2023-03-29T17:40:21.735Z,1381.00
2023-03-29T17:44:21.893Z,1400.00
2023-03-29T17:48:21.693Z,1469.00
2023-03-29T17:52:21.845Z,1475.00
2023-03-29T17:56:21.601Z,1489.00
2023-03-29T18:00:21.885Z,1522.00
2023-03-29T18:04:21.555Z,1605.00
2023-03-29T18:08:21.895Z,1652.00
2023-03-29T18:12:21.911Z,1577.00
2023-03-29T18:16:21.918Z,1717.00
2023-03-29T18:20:21.882Z,1764.00
2023-03-29T18:24:21.749Z,1730.00
2023-03-29T18:28:21.874Z,1687.00
2023-03-29T18:32:22.407Z,1665.00
2023-03-29T18:36:22.442Z,1633.00
2023-03-29T18:40:22.189Z,1641.00
2023-03-29T18:44:22.324Z,1679.00
2023-03-29T18:48:29.910Z,1695.00
2023-03-29T18:52:22.444Z,1720.00
2023-03-29T18:56:22.416Z,1742.00
2023-03-29T19:00:22.269Z,1765.00
2023-03-29T19:04:23.072Z,1775.00
2023-03-29T19:08:22.444Z,1805.00
2023-03-29T19:12:22.423Z,1783.00
2023-03-29T19:16:22.250Z,1741.00
2023-03-29T19:20:22.913Z,1815.00
2023-03-29T19:24:22.319Z,1803.00
2023-03-29T19:28:22.476Z,1837.00
2023-03-29T19:32:22.470Z,1848.00
2023-03-29T19:36:22.964Z,1843.00
2023-03-29T19:40:22.595Z,1852.00
2023-03-29T19:44:22.923Z,1870.00
2023-03-29T19:48:24.422Z,1872.00
2023-03-29T19:52:22.745Z,1896.00
2023-03-29T19:56:22.929Z,1876.00
2023-03-29T20:00:22.820Z,1921.00
2023-03-29T20:04:22.978Z,1907.00
2023-03-29T20:08:23.439Z,1889.00
2023-03-29T20:12:23.121Z,1871.00
2023-03-29T20:16:23.512Z,1859.00
2023-03-29T20:20:23.443Z,1860.00
2023-03-29T20:24:23.650Z,1856.00
2023-03-29T20:28:23.995Z,1854.00
2023-03-29T20:32:24.033Z,1851.00
2023-03-29T20:36:24.574Z,1839.00
2023-03-29T20:40:24.423Z,1828.00
2023-03-29T20:44:24.475Z,1821.00
2023-03-29T20:48:24.498Z,1818.00
2023-03-29T20:52:24.318Z,1822.00
2023-03-29T20:56:24.470Z,1807.00
2023-03-29T21:00:24.230Z,1797.00
2023-03-29T21:04:24.166Z,1799.00
2023-03-29T21:08:24.480Z,1788.00
2023-03-29T21:12:24.094Z,1783.00
2023-03-29T21:16:24.533Z,1776.00
2023-03-29T21:20:24.218Z,1772.00
2023-03-29T21:24:24.106Z,1763.00
2023-03-29T21:28:24.476Z,1759.00
2023-03-29T21:32:24.065Z,1755.00
2023-03-29T21:36:24.017Z,1744.00
2023-03-29T21:40:23.963Z,1743.00
2023-03-29T21:44:24.024Z,1737.00
2023-03-29T21:48:23.988Z,1728.00
2023-03-29T21:52:24.006Z,1722.00
2023-03-29T21:56:23.837Z,1702.00
2023-03-29T22:00:23.990Z,1698.00
2023-03-29T22:04:35.931Z,1690.00
2023-03-29T22:08:25.491Z,1685.00
2023-03-29T22:12:24.013Z,1682.00
2023-03-29T22:16:24.054Z,1670.00
2023-03-29T22:20:24.527Z,1660.00
2023-03-29T22:24:24.178Z,1655.00
2023-03-29T22:28:24.512Z,1648.00
2023-03-29T22:32:24.527Z,1639.00
2023-03-29T22:36:24.266Z,1638.00
2023-03-29T22:40:24.318Z,1630.00
2023-03-29T22:44:24.534Z,1624.00
2023-03-29T22:48:24.413Z,1620.00
2023-03-29T22:52:24.619Z,1617.00
2023-03-29T22:56:24.413Z,1605.00
2023-03-29T23:00:24.420Z,1593.00
2023-03-29T23:04:24.567Z,1583.00
2023-03-29T23:08:24.386Z,1584.00
2023-03-29T23:12:24.375Z,1577.00
2023-03-29T23:16:24.634Z,1577.00
2023-03-29T23:20:24.547Z,1568.00
2023-03-29T23:24:24.532Z,1557.00
2023-03-29T23:28:24.326Z,1549.00
2023-03-29T23:32:24.382Z,1546.00
2023-03-29T23:36:24.542Z,1541.00
2023-03-29T23:40:24.592Z,1535.00
2023-03-29T23:44:24.545Z,1540.00
2023-03-29T23:48:24.304Z,1536.00
2023-03-29T23:52:24.293Z,1525.00
2023-03-29T23:56:24.610Z,1523.00
